sensor_id;sensor_type;location;lat;lon;timestamp;P1;durP1;ratioP1;P2;durP2;ratioP2
72569;SDS011;60594;50.204;8.844;2022-10-31T00:00:58;8.07;;;4.80;;
72569;SDS011;60594;50.204;8.844;2022-10-31T00:03:38;8.70;;;4.30;;
72569;SDS011;60594;50.204;8.844;2022-10-31T00:06:04;10.10;;;4.43;;
72569;SDS011;60594;50.204;8.844;2022-10-31T00:08:31;9.43;;;4.57;;
72569;SDS011;60594;50.204;8.844;2022-10-31T00:10:57;9.30;;;4.78;;
72569;SDS011;60594;50.204;8.844;2022-10-31T00:15:51;8.48;;;4.13;;
72569;SDS011;60594;50.204;8.844;2022-10-31T00:18:18;9.93;;;4.35;;
72569;SDS011;60594;50.204;8.844;2022-10-31T00:20:44;9.13;;;4.63;;
72569;SDS011;60594;50.204;8.844;2022-10-31T00:23:11;13.82;;;5.20;;
72569;SDS011;60594;50.204;8.844;2022-10-31T00:25:40;6.90;;;3.92;;
72569;SDS011;60594;50.204;8.844;2022-10-31T00:28:07;9.40;;;4.88;;
72569;SDS011;60594;50.204;8.844;2022-10-31T00:30:37;9.32;;;5.07;;
72569;SDS011;60594;50.204;8.844;2022-10-31T00:33:04;11.70;;;4.47;;
72569;SDS011;60594;50.204;8.844;2022-10-31T00:35:31;7.22;;;4.55;;
72569;SDS011;60594;50.204;8.844;2022-10-31T00:37:58;6.75;;;3.95;;
72569;SDS011;60594;50.204;8.844;2022-10-31T00:40:26;8.35;;;3.88;;
72569;SDS011;60594;50.204;8.844;2022-10-31T00:42:53;8.02;;;4.10;;
72569;SDS011;60594;50.204;8.844;2022-10-31T00:45:19;8.77;;;4.07;;
72569;SDS011;60594;50.204;8.844;2022-10-31T00:47:48;9.43;;;4.63;;
72569;SDS011;60594;50.204;8.844;2022-10-31T00:50:16;9.13;;;4.38;;
72569;SDS011;60594;50.204;8.844;2022-10-31T00:52:43;8.77;;;4.72;;
72569;SDS011;60594;50.204;8.844;2022-10-31T00:55:09;8.35;;;4.80;;
72569;SDS011;60594;50.204;8.844;2022-10-31T00:57:37;7.85;;;4.70;;
72569;SDS011;60594;50.204;8.844;2022-10-31T01:00:05;8.45;;;5.07;;
72569;SDS011;60594;50.204;8.844;2022-10-31T01:02:32;7.95;;;4.47;;
72569;SDS011;60594;50.204;8.844;2022-10-31T01:05:00;10.15;;;4.85;;
72569;SDS011;60594;50.204;8.844;2022-10-31T01:07:30;7.30;;;4.20;;
72569;SDS011;60594;50.204;8.844;2022-10-31T01:09:56;7.70;;;4.70;;
72569;SDS011;60594;50.204;8.844;2022-10-31T01:12:22;6.82;;;4.68;;
72569;SDS011;60594;50.204;8.844;2022-10-31T01:14:50;6.88;;;3.95;;
72569;SDS011;60594;50.204;8.844;2022-10-31T01:17:18;9.50;;;5.15;;
72569;SDS011;60594;50.204;8.844;2022-10-31T01:22:14;8.30;;;4.25;;
72569;SDS011;60594;50.204;8.844;2022-10-31T01:24:40;8.85;;;4.43;;
72569;SDS011;60594;50.204;8.844;2022-10-31T01:27:07;8.05;;;4.63;;
72569;SDS011;60594;50.204;8.844;2022-10-31T01:29:33;9.50;;;4.50;;
72569;SDS011;60594;50.204;8.844;2022-10-31T01:32:00;7.20;;;3.75;;
72569;SDS011;60594;50.204;8.844;2022-10-31T01:34:26;7.13;;;3.83;;
72569;SDS011;60594;50.204;8.844;2022-10-31T01:36:54;7.72;;;4.45;;
72569;SDS011;60594;50.204;8.844;2022-10-31T01:39:22;9.63;;;3.97;;
72569;SDS011;60594;50.204;8.844;2022-10-31T01:41:52;12.02;;;4.88;;
72569;SDS011;60594;50.204;8.844;2022-10-31T01:49:16;7.50;;;4.25;;
72569;SDS011;60594;50.204;8.844;2022-10-31T01:51:45;10.07;;;4.15;;
72569;SDS011;60594;50.204;8.844;2022-10-31T01:54:19;6.95;;;3.65;;
72569;SDS011;60594;50.204;8.844;2022-10-31T01:56:50;8.43;;;4.38;;
72569;SDS011;60594;50.204;8.844;2022-10-31T01:59:19;6.78;;;4.10;;
72569;SDS011;60594;50.204;8.844;2022-10-31T02:01:48;7.47;;;3.72;;
72569;SDS011;60594;50.204;8.844;2022-10-31T02:04:18;9.25;;;4.75;;
72569;SDS011;60594;50.204;8.844;2022-10-31T02:06:49;7.10;;;3.90;;
72569;SDS011;60594;50.204;8.844;2022-10-31T02:09:20;10.25;;;3.90;;
72569;SDS011;60594;50.204;8.844;2022-10-31T02:11:52;8.95;;;4.70;;
72569;SDS011;60594;50.204;8.844;2022-10-31T02:14:22;9.48;;;3.75;;
72569;SDS011;60594;50.204;8.844;2022-10-31T02:16:53;7.38;;;4.28;;
72569;SDS011;60594;50.204;8.844;2022-10-31T02:19:29;6.63;;;4.10;;
72569;SDS011;60594;50.204;8.844;2022-10-31T02:22:59;6.25;;;3.80;;
72569;SDS011;60594;50.204;8.844;2022-10-31T02:31:39;7.90;;;4.20;;
72569;SDS011;60594;50.204;8.844;2022-10-31T02:34:34;7.07;;;3.63;;
72569;SDS011;60594;50.204;8.844;2022-10-31T02:43:12;8.13;;;4.47;;
72569;SDS011;60594;50.204;8.844;2022-10-31T02:45:55;7.72;;;4.18;;
72569;SDS011;60594;50.204;8.844;2022-10-31T02:48:31;7.45;;;4.07;;
72569;SDS011;60594;50.204;8.844;2022-10-31T02:51:01;10.85;;;4.15;;
72569;SDS011;60594;50.204;8.844;2022-10-31T02:53:33;6.97;;;4.30;;
72569;SDS011;60594;50.204;8.844;2022-10-31T02:56:02;8.07;;;4.05;;
72569;SDS011;60594;50.204;8.844;2022-10-31T02:58:34;6.90;;;4.35;;
72569;SDS011;60594;50.204;8.844;2022-10-31T03:07:15;7.35;;;3.72;;
72569;SDS011;60594;50.204;8.844;2022-10-31T03:10:01;6.45;;;3.90;;
72569;SDS011;60594;50.204;8.844;2022-10-31T03:15:45;9.20;;;4.18;;
72569;SDS011;60594;50.204;8.844;2022-10-31T03:18:15;8.30;;;4.75;;
72569;SDS011;60594;50.204;8.844;2022-10-31T03:20:47;7.13;;;4.88;;
72569;SDS011;60594;50.204;8.844;2022-10-31T03:23:21;7.45;;;4.20;;
72569;SDS011;60594;50.204;8.844;2022-10-31T03:25:52;6.47;;;3.95;;
72569;SDS011;60594;50.204;8.844;2022-10-31T03:28:27;7.30;;;3.97;;
72569;SDS011;60594;50.204;8.844;2022-10-31T03:30:57;5.82;;;3.42;;
72569;SDS011;60594;50.204;8.844;2022-10-31T03:33:27;7.70;;;3.75;;
72569;SDS011;60594;50.204;8.844;2022-10-31T03:35:58;6.60;;;4.40;;
72569;SDS011;60594;50.204;8.844;2022-10-31T03:38:28;8.07;;;3.53;;
72569;SDS011;60594;50.204;8.844;2022-10-31T03:40:56;7.90;;;3.60;;
72569;SDS011;60594;50.204;8.844;2022-10-31T03:43:27;7.13;;;3.60;;
72569;SDS011;60594;50.204;8.844;2022-10-31T03:45:58;5.72;;;3.65;;
72569;SDS011;60594;50.204;8.844;2022-10-31T03:48:25;7.03;;;4.10;;
72569;SDS011;60594;50.204;8.844;2022-10-31T03:56:13;6.82;;;4.38;;
72569;SDS011;60594;50.204;8.844;2022-10-31T03:58:49;6.35;;;3.85;;
72569;SDS011;60594;50.204;8.844;2022-10-31T04:01:24;6.78;;;4.45;;
72569;SDS011;60594;50.204;8.844;2022-10-31T04:08:49;7.10;;;3.50;;
72569;SDS011;60594;50.204;8.844;2022-10-31T04:11:21;10.13;;;3.80;;
72569;SDS011;60594;50.204;8.844;2022-10-31T04:14:16;7.03;;;3.75;;
72569;SDS011;60594;50.204;8.844;2022-10-31T04:16:44;6.88;;;3.92;;
72569;SDS011;60594;50.204;8.844;2022-10-31T04:19:12;6.63;;;4.38;;
72569;SDS011;60594;50.204;8.844;2022-10-31T04:21:40;8.65;;;3.95;;
72569;SDS011;60594;50.204;8.844;2022-10-31T04:24:10;9.13;;;3.88;;
72569;SDS011;60594;50.204;8.844;2022-10-31T04:29:30;8.52;;;4.25;;
72569;SDS011;60594;50.204;8.844;2022-10-31T04:31:58;10.68;;;4.45;;
72569;SDS011;60594;50.204;8.844;2022-10-31T04:34:24;8.63;;;4.32;;
72569;SDS011;60594;50.204;8.844;2022-10-31T04:36:51;9.77;;;4.13;;
72569;SDS011;60594;50.204;8.844;2022-10-31T04:39:19;7.82;;;4.43;;
72569;SDS011;60594;50.204;8.844;2022-10-31T04:42:00;6.85;;;4.68;;
72569;SDS011;60594;50.204;8.844;2022-10-31T04:44:29;7.07;;;4.10;;
72569;SDS011;60594;50.204;8.844;2022-10-31T04:46:59;6.63;;;4.20;;
72569;SDS011;60594;50.204;8.844;2022-10-31T04:49:26;7.22;;;4.50;;
72569;SDS011;60594;50.204;8.844;2022-10-31T04:51:53;15.07;;;4.80;;
72569;SDS011;60594;50.204;8.844;2022-10-31T04:54:20;8.18;;;3.85;;
72569;SDS011;60594;50.204;8.844;2022-10-31T04:57:05;8.25;;;3.90;;
72569;SDS011;60594;50.204;8.844;2022-10-31T04:59:33;7.50;;;3.92;;
72569;SDS011;60594;50.204;8.844;2022-10-31T05:02:00;9.30;;;4.13;;
72569;SDS011;60594;50.204;8.844;2022-10-31T05:04:46;7.95;;;4.82;;
72569;SDS011;60594;50.204;8.844;2022-10-31T05:07:12;8.52;;;3.60;;
72569;SDS011;60594;50.204;8.844;2022-10-31T05:09:38;6.95;;;4.22;;
72569;SDS011;60594;50.204;8.844;2022-10-31T05:12:05;7.07;;;3.65;;
72569;SDS011;60594;50.204;8.844;2022-10-31T05:14:50;11.52;;;4.18;;
72569;SDS011;60594;50.204;8.844;2022-10-31T05:17:39;7.80;;;4.50;;
72569;SDS011;60594;50.204;8.844;2022-10-31T05:20:38;6.18;;;4.40;;
72569;SDS011;60594;50.204;8.844;2022-10-31T05:23:27;7.45;;;4.18;;
72569;SDS011;60594;50.204;8.844;2022-10-31T05:25:53;6.97;;;3.88;;
72569;SDS011;60594;50.204;8.844;2022-10-31T05:28:20;6.18;;;3.53;;
72569;SDS011;60594;50.204;8.844;2022-10-31T05:30:47;7.05;;;3.85;;
72569;SDS011;60594;50.204;8.844;2022-10-31T05:33:15;6.15;;;3.97;;
72569;SDS011;60594;50.204;8.844;2022-10-31T05:36:01;6.30;;;3.75;;
72569;SDS011;60594;50.204;8.844;2022-10-31T05:38:33;7.80;;;3.80;;
72569;SDS011;60594;50.204;8.844;2022-10-31T05:41:08;8.93;;;3.92;;
72569;SDS011;60594;50.204;8.844;2022-10-31T05:43:35;6.88;;;3.33;;
72569;SDS011;60594;50.204;8.844;2022-10-31T05:46:05;9.18;;;3.85;;
72569;SDS011;60594;50.204;8.844;2022-10-31T05:48:51;6.10;;;3.40;;
72569;SDS011;60594;50.204;8.844;2022-10-31T05:51:36;6.25;;;3.63;;
72569;SDS011;60594;50.204;8.844;2022-10-31T05:54:04;6.35;;;3.88;;
72569;SDS011;60594;50.204;8.844;2022-10-31T05:56:30;8.23;;;4.10;;
72569;SDS011;60594;50.204;8.844;2022-10-31T05:58:57;9.48;;;3.78;;
72569;SDS011;60594;50.204;8.844;2022-10-31T06:01:25;7.32;;;3.88;;
72569;SDS011;60594;50.204;8.844;2022-10-31T06:03:52;7.13;;;4.43;;
72569;SDS011;60594;50.204;8.844;2022-10-31T06:06:20;6.72;;;3.58;;
72569;SDS011;60594;50.204;8.844;2022-10-31T06:08:46;6.90;;;4.10;;
72569;SDS011;60594;50.204;8.844;2022-10-31T06:11:17;6.63;;;4.22;;
72569;SDS011;60594;50.204;8.844;2022-10-31T06:14:04;9.18;;;4.22;;
72569;SDS011;60594;50.204;8.844;2022-10-31T06:16:55;6.47;;;3.63;;
72569;SDS011;60594;50.204;8.844;2022-10-31T06:19:40;7.55;;;3.90;;
72569;SDS011;60594;50.204;8.844;2022-10-31T06:24:44;6.30;;;3.55;;
72569;SDS011;60594;50.204;8.844;2022-10-31T06:27:27;6.57;;;4.10;;
72569;SDS011;60594;50.204;8.844;2022-10-31T06:29:55;7.93;;;4.53;;
72569;SDS011;60594;50.204;8.844;2022-10-31T06:32:28;8.30;;;4.35;;
72569;SDS011;60594;50.204;8.844;2022-10-31T06:34:56;9.88;;;4.13;;
72569;SDS011;60594;50.204;8.844;2022-10-31T06:37:23;6.43;;;3.80;;
72569;SDS011;60594;50.204;8.844;2022-10-31T06:39:50;6.10;;;3.95;;
72569;SDS011;60594;50.204;8.844;2022-10-31T06:42:17;9.20;;;4.60;;
72569;SDS011;60594;50.204;8.844;2022-10-31T06:44:44;7.45;;;4.32;;
72569;SDS011;60594;50.204;8.844;2022-10-31T06:47:39;6.63;;;4.15;;
72569;SDS011;60594;50.204;8.844;2022-10-31T06:50:08;7.00;;;4.28;;
72569;SDS011;60594;50.204;8.844;2022-10-31T06:52:36;7.22;;;4.68;;
72569;SDS011;60594;50.204;8.844;2022-10-31T06:55:04;6.15;;;3.63;;
72569;SDS011;60594;50.204;8.844;2022-10-31T06:57:34;7.10;;;3.95;;
72569;SDS011;60594;50.204;8.844;2022-10-31T07:00:00;6.68;;;4.20;;
72569;SDS011;60594;50.204;8.844;2022-10-31T07:02:58;7.85;;;4.82;;
72569;SDS011;60594;50.204;8.844;2022-10-31T07:05:27;10.10;;;5.10;;
72569;SDS011;60594;50.204;8.844;2022-10-31T07:07:56;6.63;;;4.43;;
72569;SDS011;60594;50.204;8.844;2022-10-31T07:10:30;6.93;;;4.63;;
72569;SDS011;60594;50.204;8.844;2022-10-31T07:13:03;8.60;;;5.72;;
72569;SDS011;60594;50.204;8.844;2022-10-31T07:15:34;7.97;;;4.60;;
72569;SDS011;60594;50.204;8.844;2022-10-31T07:20:30;8.10;;;3.95;;
72569;SDS011;60594;50.204;8.844;2022-10-31T07:22:58;8.93;;;5.63;;
72569;SDS011;60594;50.204;8.844;2022-10-31T07:25:28;10.93;;;5.55;;
72569;SDS011;60594;50.204;8.844;2022-10-31T07:28:05;9.90;;;4.55;;
72569;SDS011;60594;50.204;8.844;2022-10-31T07:30:33;10.13;;;4.72;;
72569;SDS011;60594;50.204;8.844;2022-10-31T07:33:01;8.55;;;5.00;;
72569;SDS011;60594;50.204;8.844;2022-10-31T07:35:51;7.53;;;4.53;;
72569;SDS011;60594;50.204;8.844;2022-10-31T07:38:22;7.05;;;4.63;;
72569;SDS011;60594;50.204;8.844;2022-10-31T07:40:50;11.55;;;4.90;;
72569;SDS011;60594;50.204;8.844;2022-10-31T07:43:18;7.72;;;5.07;;
72569;SDS011;60594;50.204;8.844;2022-10-31T07:46:09;7.90;;;5.20;;
72569;SDS011;60594;50.204;8.844;2022-10-31T07:49:03;7.25;;;4.63;;
72569;SDS011;60594;50.204;8.844;2022-10-31T07:51:59;7.57;;;4.72;;
72569;SDS011;60594;50.204;8.844;2022-10-31T07:54:44;7.45;;;3.90;;
72569;SDS011;60594;50.204;8.844;2022-10-31T07:57:13;7.35;;;4.68;;
72569;SDS011;60594;50.204;8.844;2022-10-31T07:59:39;7.35;;;4.95;;
72569;SDS011;60594;50.204;8.844;2022-10-31T08:02:07;7.75;;;4.55;;
72569;SDS011;60594;50.204;8.844;2022-10-31T08:04:46;7.82;;;4.65;;
72569;SDS011;60594;50.204;8.844;2022-10-31T08:07:35;6.63;;;4.28;;
72569;SDS011;60594;50.204;8.844;2022-10-31T08:10:05;7.75;;;5.03;;
72569;SDS011;60594;50.204;8.844;2022-10-31T08:12:33;8.93;;;5.55;;
72569;SDS011;60594;50.204;8.844;2022-10-31T08:15:00;9.20;;;4.72;;
72569;SDS011;60594;50.204;8.844;2022-10-31T08:17:28;12.43;;;5.13;;
72569;SDS011;60594;50.204;8.844;2022-10-31T08:19:57;10.02;;;5.15;;
72569;SDS011;60594;50.204;8.844;2022-10-31T08:22:39;11.65;;;5.38;;
72569;SDS011;60594;50.204;8.844;2022-10-31T08:25:06;9.63;;;5.43;;
72569;SDS011;60594;50.204;8.844;2022-10-31T08:27:33;11.05;;;6.00;;
72569;SDS011;60594;50.204;8.844;2022-10-31T08:30:01;8.13;;;4.47;;
72569;SDS011;60594;50.204;8.844;2022-10-31T08:32:27;8.90;;;5.97;;
72569;SDS011;60594;50.204;8.844;2022-10-31T08:35:28;8.82;;;4.88;;
72569;SDS011;60594;50.204;8.844;2022-10-31T08:40:48;8.73;;;4.60;;
72569;SDS011;60594;50.204;8.844;2022-10-31T08:43:15;9.85;;;5.68;;
72569;SDS011;60594;50.204;8.844;2022-10-31T08:45:44;10.02;;;6.05;;
72569;SDS011;60594;50.204;8.844;2022-10-31T08:48:20;9.68;;;5.22;;
72569;SDS011;60594;50.204;8.844;2022-10-31T08:50:48;10.27;;;5.35;;
72569;SDS011;60594;50.204;8.844;2022-10-31T08:53:16;8.63;;;5.38;;
72569;SDS011;60594;50.204;8.844;2022-10-31T08:55:47;9.68;;;5.07;;
72569;SDS011;60594;50.204;8.844;2022-10-31T08:58:24;9.13;;;5.28;;
72569;SDS011;60594;50.204;8.844;2022-10-31T09:00:55;8.90;;;5.05;;
72569;SDS011;60594;50.204;8.844;2022-10-31T09:03:27;9.93;;;5.20;;
72569;SDS011;60594;50.204;8.844;2022-10-31T09:05:55;9.57;;;5.43;;
72569;SDS011;60594;50.204;8.844;2022-10-31T09:08:24;8.02;;;5.28;;
72569;SDS011;60594;50.204;8.844;2022-10-31T09:10:51;7.53;;;4.55;;
72569;SDS011;60594;50.204;8.844;2022-10-31T09:13:30;8.82;;;4.97;;
72569;SDS011;60594;50.204;8.844;2022-10-31T09:16:27;7.15;;;4.68;;
72569;SDS011;60594;50.204;8.844;2022-10-31T09:18:54;6.90;;;4.40;;
72569;SDS011;60594;50.204;8.844;2022-10-31T09:21:21;7.75;;;5.22;;
72569;SDS011;60594;50.204;8.844;2022-10-31T09:23:47;8.80;;;5.28;;
72569;SDS011;60594;50.204;8.844;2022-10-31T09:26:15;8.15;;;4.43;;
72569;SDS011;60594;50.204;8.844;2022-10-31T09:29:02;8.95;;;5.25;;
72569;SDS011;60594;50.204;8.844;2022-10-31T09:31:29;7.97;;;4.78;;
72569;SDS011;60594;50.204;8.844;2022-10-31T09:34:24;8.35;;;4.82;;
72569;SDS011;60594;50.204;8.844;2022-10-31T09:37:09;10.23;;;5.75;;
72569;SDS011;60594;50.204;8.844;2022-10-31T09:39:36;9.48;;;5.70;;
72569;SDS011;60594;50.204;8.844;2022-10-31T09:42:15;9.20;;;5.13;;
72569;SDS011;60594;50.204;8.844;2022-10-31T09:45:06;8.15;;;5.07;;
72569;SDS011;60594;50.204;8.844;2022-10-31T09:50:45;10.38;;;6.32;;
72569;SDS011;60594;50.204;8.844;2022-10-31T09:56:18;11.90;;;6.40;;
72569;SDS011;60594;50.204;8.844;2022-10-31T09:58:54;7.80;;;4.40;;
72569;SDS011;60594;50.204;8.844;2022-10-31T10:01:36;7.40;;;4.72;;
72569;SDS011;60594;50.204;8.844;2022-10-31T10:27:58;9.20;;;5.57;;
72569;SDS011;60594;50.204;8.844;2022-10-31T10:30:42;11.25;;;5.93;;
72569;SDS011;60594;50.204;8.844;2022-10-31T10:35:52;12.65;;;5.85;;
72569;SDS011;60594;50.204;8.844;2022-10-31T10:41:04;10.38;;;6.72;;
72569;SDS011;60594;50.204;8.844;2022-10-31T10:43:36;10.95;;;5.70;;
72569;SDS011;60594;50.204;8.844;2022-10-31T10:51:38;10.93;;;5.80;;
72569;SDS011;60594;50.204;8.844;2022-10-31T10:54:22;10.52;;;5.47;;
72569;SDS011;60594;50.204;8.844;2022-10-31T10:59:48;10.52;;;6.03;;
72569;SDS011;60594;50.204;8.844;2022-10-31T11:02:19;13.10;;;6.85;;
72569;SDS011;60594;50.204;8.844;2022-10-31T11:04:51;14.13;;;6.43;;
72569;SDS011;60594;50.204;8.844;2022-10-31T11:07:20;12.77;;;6.13;;
72569;SDS011;60594;50.204;8.844;2022-10-31T11:09:47;10.60;;;5.82;;
72569;SDS011;60594;50.204;8.844;2022-10-31T11:12:19;11.55;;;6.18;;
72569;SDS011;60594;50.204;8.844;2022-10-31T11:14:58;12.43;;;6.10;;
72569;SDS011;60594;50.204;8.844;2022-10-31T11:17:32;10.85;;;6.63;;
72569;SDS011;60594;50.204;8.844;2022-10-31T11:22:39;11.82;;;6.05;;
72569;SDS011;60594;50.204;8.844;2022-10-31T11:25:23;11.02;;;5.80;;
72569;SDS011;60594;50.204;8.844;2022-10-31T11:28:10;16.27;;;6.72;;
72569;SDS011;60594;50.204;8.844;2022-10-31T11:30:43;11.88;;;6.45;;
72569;SDS011;60594;50.204;8.844;2022-10-31T11:33:13;12.50;;;6.72;;
72569;SDS011;60594;50.204;8.844;2022-10-31T11:35:49;14.60;;;6.50;;
72569;SDS011;60594;50.204;8.844;2022-10-31T11:38:17;11.45;;;6.93;;
72569;SDS011;60594;50.204;8.844;2022-10-31T11:40:52;12.60;;;7.45;;
72569;SDS011;60594;50.204;8.844;2022-10-31T11:43:25;10.00;;;6.07;;
72569;SDS011;60594;50.204;8.844;2022-10-31T11:45:53;14.20;;;6.70;;
72569;SDS011;60594;50.204;8.844;2022-10-31T11:48:21;13.32;;;6.63;;
72569;SDS011;60594;50.204;8.844;2022-10-31T11:50:52;12.20;;;7.10;;
72569;SDS011;60594;50.204;8.844;2022-10-31T11:56:21;10.93;;;6.63;;
72569;SDS011;60594;50.204;8.844;2022-10-31T11:58:54;11.52;;;6.47;;
72569;SDS011;60594;50.204;8.844;2022-10-31T12:04:07;12.55;;;6.68;;
72569;SDS011;60594;50.204;8.844;2022-10-31T12:06:37;12.80;;;6.68;;
72569;SDS011;60594;50.204;8.844;2022-10-31T12:09:39;11.70;;;6.25;;
72569;SDS011;60594;50.204;8.844;2022-10-31T12:17:28;11.27;;;5.72;;
72569;SDS011;60594;50.204;8.844;2022-10-31T12:45:52;8.23;;;5.25;;
72569;SDS011;60594;50.204;8.844;2022-10-31T12:48:31;10.07;;;5.35;;
72569;SDS011;60594;50.204;8.844;2022-10-31T12:51:14;11.20;;;5.45;;
72569;SDS011;60594;50.204;8.844;2022-10-31T12:56:34;9.50;;;5.25;;
72569;SDS011;60594;50.204;8.844;2022-10-31T12:59:21;10.48;;;5.85;;
72569;SDS011;60594;50.204;8.844;2022-10-31T13:07:25;10.90;;;5.88;;
72569;SDS011;60594;50.204;8.844;2022-10-31T13:12:52;11.75;;;5.05;;
72569;SDS011;60594;50.204;8.844;2022-10-31T13:15:25;11.63;;;5.97;;
72569;SDS011;60594;50.204;8.844;2022-10-31T13:17:55;9.05;;;5.35;;
72569;SDS011;60594;50.204;8.844;2022-10-31T13:20:29;11.73;;;5.25;;
72569;SDS011;60594;50.204;8.844;2022-10-31T13:23:03;8.90;;;5.32;;
72569;SDS011;60594;50.204;8.844;2022-10-31T13:25:38;11.57;;;5.38;;
72569;SDS011;60594;50.204;8.844;2022-10-31T13:30:59;10.40;;;4.70;;
72569;SDS011;60594;50.204;8.844;2022-10-31T13:33:30;9.68;;;4.47;;
72569;SDS011;60594;50.204;8.844;2022-10-31T13:44:17;9.30;;;4.45;;
72569;SDS011;60594;50.204;8.844;2022-10-31T13:46:53;7.68;;;4.07;;
72569;SDS011;60594;50.204;8.844;2022-10-31T13:54:40;9.27;;;4.47;;
72569;SDS011;60594;50.204;8.844;2022-10-31T13:57:15;9.15;;;4.70;;
72569;SDS011;60594;50.204;8.844;2022-10-31T13:59:55;7.43;;;3.97;;
72569;SDS011;60594;50.204;8.844;2022-10-31T14:02:29;7.95;;;3.95;;
72569;SDS011;60594;50.204;8.844;2022-10-31T14:05:17;9.48;;;4.90;;
72569;SDS011;60594;50.204;8.844;2022-10-31T14:07:51;8.52;;;4.70;;
72569;SDS011;60594;50.204;8.844;2022-10-31T14:13:03;10.65;;;4.38;;
72569;SDS011;60594;50.204;8.844;2022-10-31T14:15:32;8.20;;;4.40;;
72569;SDS011;60594;50.204;8.844;2022-10-31T14:18:01;9.10;;;4.25;;
72569;SDS011;60594;50.204;8.844;2022-10-31T14:20:39;7.78;;;4.43;;
72569;SDS011;60594;50.204;8.844;2022-10-31T14:23:49;10.70;;;4.95;;
72569;SDS011;60594;50.204;8.844;2022-10-31T14:28:58;8.57;;;3.90;;
72569;SDS011;60594;50.204;8.844;2022-10-31T14:31:50;8.20;;;4.32;;
72569;SDS011;60594;50.204;8.844;2022-10-31T14:34:23;7.95;;;3.90;;
72569;SDS011;60594;50.204;8.844;2022-10-31T14:37:02;7.95;;;3.90;;
72569;SDS011;60594;50.204;8.844;2022-10-31T14:48:10;8.80;;;4.03;;
72569;SDS011;60594;50.204;8.844;2022-10-31T14:50:54;11.52;;;4.35;;
72569;SDS011;60594;50.204;8.844;2022-10-31T14:53:25;6.45;;;3.92;;
72569;SDS011;60594;50.204;8.844;2022-10-31T14:55:53;8.45;;;4.07;;
72569;SDS011;60594;50.204;8.844;2022-10-31T15:00:59;11.25;;;4.57;;
72569;SDS011;60594;50.204;8.844;2022-10-31T15:03:30;8.50;;;4.18;;
72569;SDS011;60594;50.204;8.844;2022-10-31T15:06:11;7.65;;;4.25;;
72569;SDS011;60594;50.204;8.844;2022-10-31T15:08:45;10.02;;;4.13;;
72569;SDS011;60594;50.204;8.844;2022-10-31T15:11:17;7.65;;;4.57;;
72569;SDS011;60594;50.204;8.844;2022-10-31T15:13:58;10.05;;;5.15;;
72569;SDS011;60594;50.204;8.844;2022-10-31T15:16:30;11.95;;;4.50;;
72569;SDS011;60594;50.204;8.844;2022-10-31T15:19:00;7.97;;;4.47;;
72569;SDS011;60594;50.204;8.844;2022-10-31T15:21:30;8.38;;;4.40;;
72569;SDS011;60594;50.204;8.844;2022-10-31T15:23:58;8.30;;;4.60;;
72569;SDS011;60594;50.204;8.844;2022-10-31T15:26:31;9.27;;;4.80;;
72569;SDS011;60594;50.204;8.844;2022-10-31T15:29:01;7.20;;;4.53;;
72569;SDS011;60594;50.204;8.844;2022-10-31T15:31:30;10.13;;;5.00;;
72569;SDS011;60594;50.204;8.844;2022-10-31T15:34:02;12.00;;;5.25;;
72569;SDS011;60594;50.204;8.844;2022-10-31T15:36:33;9.55;;;5.25;;
72569;SDS011;60594;50.204;8.844;2022-10-31T15:38:59;10.45;;;4.55;;
72569;SDS011;60594;50.204;8.844;2022-10-31T15:41:33;10.32;;;4.57;;
72569;SDS011;60594;50.204;8.844;2022-10-31T15:47:22;8.43;;;4.35;;
72569;SDS011;60594;50.204;8.844;2022-10-31T15:49:54;10.70;;;5.25;;
72569;SDS011;60594;50.204;8.844;2022-10-31T15:52:26;10.05;;;5.22;;
72569;SDS011;60594;50.204;8.844;2022-10-31T15:57:41;10.32;;;4.85;;
72569;SDS011;60594;50.204;8.844;2022-10-31T16:03:05;9.48;;;4.47;;
72569;SDS011;60594;50.204;8.844;2022-10-31T16:05:47;8.35;;;4.93;;
72569;SDS011;60594;50.204;8.844;2022-10-31T16:08:32;8.68;;;4.45;;
72569;SDS011;60594;50.204;8.844;2022-10-31T16:13:34;10.68;;;4.47;;
72569;SDS011;60594;50.204;8.844;2022-10-31T16:16:03;7.00;;;4.28;;
72569;SDS011;60594;50.204;8.844;2022-10-31T16:18:41;9.15;;;4.65;;
72569;SDS011;60594;50.204;8.844;2022-10-31T16:21:08;9.20;;;4.28;;
72569;SDS011;60594;50.204;8.844;2022-10-31T16:23:36;10.07;;;4.70;;
72569;SDS011;60594;50.204;8.844;2022-10-31T16:26:13;9.73;;;4.80;;
72569;SDS011;60594;50.204;8.844;2022-10-31T16:28:50;8.93;;;4.93;;
72569;SDS011;60594;50.204;8.844;2022-10-31T16:31:24;8.73;;;5.00;;
72569;SDS011;60594;50.204;8.844;2022-10-31T16:34:13;12.57;;;4.97;;
72569;SDS011;60594;50.204;8.844;2022-10-31T16:36:41;10.35;;;5.25;;
72569;SDS011;60594;50.204;8.844;2022-10-31T16:39:08;12.88;;;5.22;;
72569;SDS011;60594;50.204;8.844;2022-10-31T16:41:35;9.50;;;5.13;;
72569;SDS011;60594;50.204;8.844;2022-10-31T16:44:16;9.40;;;4.95;;
72569;SDS011;60594;50.204;8.844;2022-10-31T16:46:45;10.10;;;4.68;;
72569;SDS011;60594;50.204;8.844;2022-10-31T16:49:12;9.93;;;4.82;;
72569;SDS011;60594;50.204;8.844;2022-10-31T16:51:38;9.05;;;4.60;;
72569;SDS011;60594;50.204;8.844;2022-10-31T16:54:05;11.00;;;5.13;;
72569;SDS011;60594;50.204;8.844;2022-10-31T16:56:32;9.98;;;5.15;;
72569;SDS011;60594;50.204;8.844;2022-10-31T16:59:02;13.13;;;6.10;;
72569;SDS011;60594;50.204;8.844;2022-10-31T17:01:31;10.13;;;5.70;;
72569;SDS011;60594;50.204;8.844;2022-10-31T17:03:58;9.63;;;5.10;;
72569;SDS011;60594;50.204;8.844;2022-10-31T17:06:25;13.15;;;5.47;;
72569;SDS011;60594;50.204;8.844;2022-10-31T17:08:53;11.90;;;5.38;;
72569;SDS011;60594;50.204;8.844;2022-10-31T17:11:21;8.65;;;5.32;;
72569;SDS011;60594;50.204;8.844;2022-10-31T17:13:50;9.40;;;5.35;;
72569;SDS011;60594;50.204;8.844;2022-10-31T17:16:16;10.35;;;5.53;;
72569;SDS011;60594;50.204;8.844;2022-10-31T17:18:43;12.63;;;5.28;;
72569;SDS011;60594;50.204;8.844;2022-10-31T17:21:13;11.20;;;5.65;;
72569;SDS011;60594;50.204;8.844;2022-10-31T17:23:49;12.50;;;5.43;;
72569;SDS011;60594;50.204;8.844;2022-10-31T17:26:16;12.98;;;6.40;;
72569;SDS011;60594;50.204;8.844;2022-10-31T17:28:42;9.63;;;5.40;;
72569;SDS011;60594;50.204;8.844;2022-10-31T17:31:11;10.18;;;5.68;;
72569;SDS011;60594;50.204;8.844;2022-10-31T17:33:49;12.05;;;5.72;;
72569;SDS011;60594;50.204;8.844;2022-10-31T17:36:15;9.25;;;5.25;;
72569;SDS011;60594;50.204;8.844;2022-10-31T17:38:42;11.27;;;5.88;;
72569;SDS011;60594;50.204;8.844;2022-10-31T17:41:08;10.18;;;5.55;;
72569;SDS011;60594;50.204;8.844;2022-10-31T17:43:35;9.43;;;5.32;;
72569;SDS011;60594;50.204;8.844;2022-10-31T17:46:01;8.10;;;5.05;;
72569;SDS011;60594;50.204;8.844;2022-10-31T17:48:28;9.52;;;5.68;;
72569;SDS011;60594;50.204;8.844;2022-10-31T17:50:58;8.73;;;5.55;;
72569;SDS011;60594;50.204;8.844;2022-10-31T17:53:26;10.05;;;5.35;;
72569;SDS011;60594;50.204;8.844;2022-10-31T17:55:58;12.32;;;6.20;;
72569;SDS011;60594;50.204;8.844;2022-10-31T17:58:25;12.90;;;5.88;;
72569;SDS011;60594;50.204;8.844;2022-10-31T18:00:51;11.40;;;6.03;;
72569;SDS011;60594;50.204;8.844;2022-10-31T18:03:18;10.02;;;6.40;;
72569;SDS011;60594;50.204;8.844;2022-10-31T18:05:54;12.23;;;6.95;;
72569;SDS011;60594;50.204;8.844;2022-10-31T18:08:28;11.75;;;6.43;;
72569;SDS011;60594;50.204;8.844;2022-10-31T18:10:57;13.50;;;6.90;;
72569;SDS011;60594;50.204;8.844;2022-10-31T18:15:52;16.33;;;11.90;;
72569;SDS011;60594;50.204;8.844;2022-10-31T18:18:19;14.60;;;7.70;;
72569;SDS011;60594;50.204;8.844;2022-10-31T18:20:46;13.25;;;8.13;;
72569;SDS011;60594;50.204;8.844;2022-10-31T18:23:12;16.45;;;7.90;;
72569;SDS011;60594;50.204;8.844;2022-10-31T18:25:39;12.38;;;7.28;;
72569;SDS011;60594;50.204;8.844;2022-10-31T18:28:06;13.55;;;7.55;;